sensor_id;sensor_type;location;lat;lon;timestamp;P1;durP1;ratioP1;P2;durP2;ratioP2
22675;SDS011;12521;43.310;21.876;2023-12-29T00:03:13;48.0;;;35.0;;
22675;SDS011;12521;43.310;21.876;2023-12-29T00:07:49;48.0;;;35.0;;
22675;SDS011;12521;43.310;21.876;2023-12-29T00:12:25;50.0;;;40.0;;
22675;SDS011;12521;43.310;21.876;2023-12-29T00:17:03;50.0;;;40.0;;
22675;SDS011;12521;43.310;21.876;2023-12-29T00:21:39;50.0;;;40.0;;
22675;SDS011;12521;43.310;21.876;2023-12-29T00:26:16;54.0;;;41.0;;
22675;SDS011;12521;43.310;21.876;2023-12-29T00:30:53;54.0;;;41.0;;
22675;SDS011;12521;43.310;21.876;2023-12-29T00:35:30;59.0;;;42.0;;
22675;SDS011;12521;43.310;21.876;2023-12-29T00:40:08;59.0;;;42.0;;
22675;SDS011;12521;43.310;21.876;2023-12-29T00:44:47;54.0;;;40.0;;
22675;SDS011;12521;43.310;21.876;2023-12-29T00:49:23;54.0;;;40.0;;
22675;SDS011;12521;43.310;21.876;2023-12-29T00:53:59;48.0;;;37.0;;
22675;SDS011;12521;43.310;21.876;2023-12-29T00:58:36;48.0;;;37.0;;
22675;SDS011;12521;43.310;21.876;2023-12-29T01:03:12;50.0;;;42.0;;
22675;SDS011;12521;43.310;21.876;2023-12-29T01:07:48;50.0;;;42.0;;
22675;SDS011;12521;43.310;21.876;2023-12-29T01:12:25;51.0;;;47.0;;
22675;SDS011;12521;43.310;21.876;2023-12-29T01:17:01;51.0;;;47.0;;
22675;SDS011;12521;43.310;21.876;2023-12-29T01:21:38;51.0;;;47.0;;
22675;SDS011;12521;43.310;21.876;2023-12-29T01:26:14;65.0;;;51.0;;
22675;SDS011;12521;43.310;21.876;2023-12-29T01:30:50;65.0;;;51.0;;
22675;SDS011;12521;43.310;21.876;2023-12-29T01:35:26;79.0;;;55.0;;
22675;SDS011;12521;43.310;21.876;2023-12-29T01:40:04;79.0;;;55.0;;
22675;SDS011;12521;43.310;21.876;2023-12-29T01:44:44;63.0;;;46.0;;
22675;SDS011;12521;43.310;21.876;2023-12-29T01:49:21;63.0;;;46.0;;
22675;SDS011;12521;43.310;21.876;2023-12-29T01:53:59;47.0;;;36.0;;
22675;SDS011;12521;43.310;21.876;2023-12-29T01:58:37;47.0;;;36.0;;
22675;SDS011;12521;43.310;21.876;2023-12-29T02:03:14;38.0;;;28.0;;
22675;SDS011;12521;43.310;21.876;2023-12-29T02:07:51;38.0;;;28.0;;
22675;SDS011;12521;43.310;21.876;2023-12-29T02:12:29;28.0;;;21.0;;
22675;SDS011;12521;43.310;21.876;2023-12-29T02:17:09;28.0;;;21.0;;
22675;SDS011;12521;43.310;21.876;2023-12-29T02:22:11;28.0;;;21.0;;
22675;SDS011;12521;43.310;21.876;2023-12-29T02:26:50;29.0;;;24.0;;
22675;SDS011;12521;43.310;21.876;2023-12-29T02:32:20;29.0;;;24.0;;
22675;SDS011;12521;43.310;21.876;2023-12-29T02:37:05;30.0;;;26.0;;
22675;SDS011;12521;43.310;21.876;2023-12-29T02:41:47;30.0;;;26.0;;
22675;SDS011;12521;43.310;21.876;2023-12-29T02:46:23;31.0;;;28.0;;
22675;SDS011;12521;43.310;21.876;2023-12-29T02:50:59;31.0;;;28.0;;
22675;SDS011;12521;43.310;21.876;2023-12-29T02:55:35;32.0;;;29.0;;
22675;SDS011;12521;43.310;21.876;2023-12-29T03:00:12;32.0;;;29.0;;
22675;SDS011;12521;43.310;21.876;2023-12-29T03:04:51;33.0;;;27.0;;
22675;SDS011;12521;43.310;21.876;2023-12-29T03:09:27;33.0;;;27.0;;
22675;SDS011;12521;43.310;21.876;2023-12-29T03:14:03;34.0;;;25.0;;
22675;SDS011;12521;43.310;21.876;2023-12-29T03:18:40;34.0;;;25.0;;
22675;SDS011;12521;43.310;21.876;2023-12-29T03:23:16;28.0;;;22.0;;
22675;SDS011;12521;43.310;21.876;2023-12-29T03:27:52;28.0;;;22.0;;
22675;SDS011;12521;43.310;21.876;2023-12-29T03:32:29;28.0;;;22.0;;
22675;SDS011;12521;43.310;21.876;2023-12-29T03:37:05;23.0;;;19.0;;
22675;SDS011;12521;43.310;21.876;2023-12-29T03:41:41;23.0;;;19.0;;
22675;SDS011;12521;43.310;21.876;2023-12-29T03:46:18;26.0;;;22.0;;
22675;SDS011;12521;43.310;21.876;2023-12-29T03:50:57;26.0;;;22.0;;
22675;SDS011;12521;43.310;21.876;2023-12-29T03:55:33;30.0;;;24.0;;
22675;SDS011;12521;43.310;21.876;2023-12-29T04:00:11;30.0;;;24.0;;
22675;SDS011;12521;43.310;21.876;2023-12-29T04:04:50;27.0;;;22.0;;
22675;SDS011;12521;43.310;21.876;2023-12-29T04:09:26;27.0;;;22.0;;
22675;SDS011;12521;43.310;21.876;2023-12-29T04:14:02;24.0;;;20.0;;
22675;SDS011;12521;43.310;21.876;2023-12-29T04:18:39;24.0;;;20.0;;
22675;SDS011;12521;43.310;21.876;2023-12-29T04:23:15;24.0;;;21.0;;
22675;SDS011;12521;43.310;21.876;2023-12-29T04:27:52;24.0;;;21.0;;
22675;SDS011;12521;43.310;21.876;2023-12-29T04:32:28;24.0;;;21.0;;
22675;SDS011;12521;43.310;21.876;2023-12-29T04:37:04;25.0;;;22.0;;
22675;SDS011;12521;43.310;21.876;2023-12-29T04:41:41;25.0;;;22.0;;
22675;SDS011;12521;43.310;21.876;2023-12-29T04:46:17;26.0;;;22.0;;
22675;SDS011;12521;43.310;21.876;2023-12-29T04:50:54;26.0;;;22.0;;
22675;SDS011;12521;43.310;21.876;2023-12-29T04:55:30;26.0;;;23.0;;
22675;SDS011;12521;43.310;21.876;2023-12-29T05:00:07;26.0;;;23.0;;
22675;SDS011;12521;43.310;21.876;2023-12-29T05:04:47;24.0;;;21.0;;
22675;SDS011;12521;43.310;21.876;2023-12-29T05:09:23;24.0;;;21.0;;
22675;SDS011;12521;43.310;21.876;2023-12-29T05:14:00;21.0;;;19.0;;
22675;SDS011;12521;43.310;21.876;2023-12-29T05:18:36;21.0;;;19.0;;
22675;SDS011;12521;43.310;21.876;2023-12-29T05:23:12;26.0;;;22.0;;
22675;SDS011;12521;43.310;21.876;2023-12-29T05:27:48;26.0;;;22.0;;
22675;SDS011;12521;43.310;21.876;2023-12-29T05:32:24;26.0;;;22.0;;
22675;SDS011;12521;43.310;21.876;2023-12-29T05:37:00;30.0;;;25.0;;
22675;SDS011;12521;43.310;21.876;2023-12-29T05:41:37;30.0;;;25.0;;
22675;SDS011;12521;43.310;21.876;2023-12-29T05:46:14;28.0;;;25.0;;
22675;SDS011;12521;43.310;21.876;2023-12-29T05:50:50;28.0;;;25.0;;
22675;SDS011;12521;43.310;21.876;2023-12-29T05:55:28;27.0;;;25.0;;
22675;SDS011;12521;43.310;21.876;2023-12-29T06:00:05;27.0;;;25.0;;
22675;SDS011;12521;43.310;21.876;2023-12-29T06:04:48;30.0;;;26.0;;
22675;SDS011;12521;43.310;21.876;2023-12-29T06:09:24;30.0;;;26.0;;
22675;SDS011;12521;43.310;21.876;2023-12-29T06:14:01;34.0;;;28.0;;
22675;SDS011;12521;43.310;21.876;2023-12-29T06:18:38;34.0;;;28.0;;
22675;SDS011;12521;43.310;21.876;2023-12-29T06:23:15;42.0;;;35.0;;
22675;SDS011;12521;43.310;21.876;2023-12-29T06:27:51;42.0;;;35.0;;
22675;SDS011;12521;43.310;21.876;2023-12-29T06:32:29;42.0;;;35.0;;
22675;SDS011;12521;43.310;21.876;2023-12-29T06:37:06;49.0;;;42.0;;
22675;SDS011;12521;43.310;21.876;2023-12-29T06:41:43;49.0;;;42.0;;
22675;SDS011;12521;43.310;21.876;2023-12-29T06:46:19;48.0;;;42.0;;
22675;SDS011;12521;43.310;21.876;2023-12-29T06:50:55;48.0;;;42.0;;
22675;SDS011;12521;43.310;21.876;2023-12-29T06:55:31;46.0;;;41.0;;
22675;SDS011;12521;43.310;21.876;2023-12-29T07:00:08;46.0;;;41.0;;
22675;SDS011;12521;43.310;21.876;2023-12-29T07:04:48;52.0;;;44.0;;
22675;SDS011;12521;43.310;21.876;2023-12-29T07:09:25;52.0;;;44.0;;
22675;SDS011;12521;43.310;21.876;2023-12-29T07:14:01;58.0;;;47.0;;
22675;SDS011;12521;43.310;21.876;2023-12-29T07:18:38;58.0;;;47.0;;
22675;SDS011;12521;43.310;21.876;2023-12-29T07:23:15;63.0;;;51.0;;
22675;SDS011;12521;43.310;21.876;2023-12-29T07:27:51;63.0;;;51.0;;
22675;SDS011;12521;43.310;21.876;2023-12-29T07:32:28;63.0;;;51.0;;
22675;SDS011;12521;43.310;21.876;2023-12-29T07:37:04;68.0;;;55.0;;
22675;SDS011;12521;43.310;21.876;2023-12-29T07:41:41;68.0;;;55.0;;
22675;SDS011;12521;43.310;21.876;2023-12-29T07:46:23;58.0;;;50.0;;
22675;SDS011;12521;43.310;21.876;2023-12-29T07:51:03;58.0;;;50.0;;
22675;SDS011;12521;43.310;21.876;2023-12-29T07:55:43;48.0;;;44.0;;
22675;SDS011;12521;43.310;21.876;2023-12-29T08:00:20;48.0;;;44.0;;
22675;SDS011;12521;43.310;21.876;2023-12-29T08:04:56;54.0;;;48.0;;
22675;SDS011;12521;43.310;21.876;2023-12-29T08:09:32;54.0;;;48.0;;
22675;SDS011;12521;43.310;21.876;2023-12-29T08:14:08;61.0;;;52.0;;
22675;SDS011;12521;43.310;21.876;2023-12-29T08:18:45;61.0;;;52.0;;
22675;SDS011;12521;43.310;21.876;2023-12-29T08:23:25;63.0;;;56.0;;
22675;SDS011;12521;43.310;21.876;2023-12-29T08:28:01;63.0;;;56.0;;
22675;SDS011;12521;43.310;21.876;2023-12-29T08:32:39;63.0;;;56.0;;
22675;SDS011;12521;43.310;21.876;2023-12-29T08:37:16;65.0;;;60.0;;
22675;SDS011;12521;43.310;21.876;2023-12-29T08:41:52;65.0;;;60.0;;
22675;SDS011;12521;43.310;21.876;2023-12-29T08:46:28;62.0;;;52.0;;
22675;SDS011;12521;43.310;21.876;2023-12-29T08:51:05;62.0;;;52.0;;
22675;SDS011;12521;43.310;21.876;2023-12-29T08:55:41;58.0;;;44.0;;
22675;SDS011;12521;43.310;21.876;2023-12-29T09:00:18;58.0;;;44.0;;
22675;SDS011;12521;43.310;21.876;2023-12-29T09:04:55;56.0;;;46.0;;
22675;SDS011;12521;43.310;21.876;2023-12-29T09:09:32;56.0;;;46.0;;
22675;SDS011;12521;43.310;21.876;2023-12-29T09:14:08;55.0;;;49.0;;
22675;SDS011;12521;43.310;21.876;2023-12-29T09:18:45;55.0;;;49.0;;
22675;SDS011;12521;43.310;21.876;2023-12-29T09:23:21;48.0;;;42.0;;
22675;SDS011;12521;43.310;21.876;2023-12-29T09:27:57;48.0;;;42.0;;
22675;SDS011;12521;43.310;21.876;2023-12-29T09:32:33;48.0;;;42.0;;
22675;SDS011;12521;43.310;21.876;2023-12-29T09:37:09;40.0;;;35.0;;
22675;SDS011;12521;43.310;21.876;2023-12-29T09:41:46;40.0;;;35.0;;
22675;SDS011;12521;43.310;21.876;2023-12-29T09:46:36;39.0;;;34.0;;
22675;SDS011;12521;43.310;21.876;2023-12-29T09:51:13;39.0;;;34.0;;
22675;SDS011;12521;43.310;21.876;2023-12-29T09:55:53;38.0;;;33.0;;
22675;SDS011;12521;43.310;21.876;2023-12-29T10:00:35;38.0;;;33.0;;
22675;SDS011;12521;43.310;21.876;2023-12-29T10:05:17;33.0;;;28.0;;
22675;SDS011;12521;43.310;21.876;2023-12-29T10:09:55;33.0;;;28.0;;
22675;SDS011;12521;43.310;21.876;2023-12-29T10:14:41;28.0;;;24.0;;
22675;SDS011;12521;43.310;21.876;2023-12-29T10:19:49;28.0;;;24.0;;
22675;SDS011;12521;43.310;21.876;2023-12-29T10:25:29;32.0;;;26.0;;
22675;SDS011;12521;43.310;21.876;2023-12-29T10:30:07;32.0;;;26.0;;
22675;SDS011;12521;43.310;21.876;2023-12-29T10:34:50;37.0;;;28.0;;
22675;SDS011;12521;43.310;21.876;2023-12-29T10:39:54;37.0;;;28.0;;
22675;SDS011;12521;43.310;21.876;2023-12-29T10:44:32;31.0;;;24.0;;
22675;SDS011;12521;43.310;21.876;2023-12-29T10:49:13;31.0;;;24.0;;
22675;SDS011;12521;43.310;21.876;2023-12-29T10:53:54;25.0;;;21.0;;
22675;SDS011;12521;43.310;21.876;2023-12-29T10:58:31;25.0;;;21.0;;
22675;SDS011;12521;43.310;21.876;2023-12-29T11:03:07;24.0;;;20.0;;
22675;SDS011;12521;43.310;21.876;2023-12-29T11:07:53;24.0;;;20.0;;
22675;SDS011;12521;43.310;21.876;2023-12-29T11:12:32;24.0;;;20.0;;
22675;SDS011;12521;43.310;21.876;2023-12-29T11:17:14;24.0;;;20.0;;
22675;SDS011;12521;43.310;21.876;2023-12-29T11:21:55;24.0;;;20.0;;
22675;SDS011;12521;43.310;21.876;2023-12-29T11:26:35;24.0;;;20.0;;
22675;SDS011;12521;43.310;21.876;2023-12-29T11:31:15;24.0;;;20.0;;
22675;SDS011;12521;43.310;21.876;2023-12-29T11:35:56;24.0;;;21.0;;
22675;SDS011;12521;43.310;21.876;2023-12-29T11:41:01;24.0;;;21.0;;
22675;SDS011;12521;43.310;21.876;2023-12-29T11:46:32;24.0;;;20.0;;
22675;SDS011;12521;43.310;21.876;2023-12-29T11:51:27;24.0;;;20.0;;
22675;SDS011;12521;43.310;21.876;2023-12-29T11:56:14;25.0;;;18.0;;
22675;SDS011;12521;43.310;21.876;2023-12-29T12:00:52;25.0;;;18.0;;
22675;SDS011;12521;43.310;21.876;2023-12-29T12:05:44;28.0;;;20.0;;
22675;SDS011;12521;43.310;21.876;2023-12-29T12:10:31;28.0;;;20.0;;
22675;SDS011;12521;43.310;21.876;2023-12-29T12:15:30;31.0;;;22.0;;
22675;SDS011;12521;43.310;21.876;2023-12-29T12:20:09;31.0;;;22.0;;
22675;SDS011;12521;43.310;21.876;2023-12-29T12:24:48;26.0;;;20.0;;
22675;SDS011;12521;43.310;21.876;2023-12-29T12:29:33;26.0;;;20.0;;
22675;SDS011;12521;43.310;21.876;2023-12-29T12:34:11;22.0;;;17.0;;
22675;SDS011;12521;43.310;21.876;2023-12-29T12:38:50;22.0;;;17.0;;
22675;SDS011;12521;43.310;21.876;2023-12-29T12:43:30;23.0;;;18.0;;
22675;SDS011;12521;43.310;21.876;2023-12-29T12:48:45;23.0;;;18.0;;
22675;SDS011;12521;43.310;21.876;2023-12-29T12:53:23;24.0;;;20.0;;
22675;SDS011;12521;43.310;21.876;2023-12-29T12:58:01;24.0;;;20.0;;
22675;SDS011;12521;43.310;21.876;2023-12-29T13:02:39;24.0;;;20.0;;
22675;SDS011;12521;43.310;21.876;2023-12-29T13:07:21;26.0;;;22.0;;
22675;SDS011;12521;43.310;21.876;2023-12-29T13:12:14;26.0;;;22.0;;
22675;SDS011;12521;43.310;21.876;2023-12-29T13:16:52;27.0;;;23.0;;
22675;SDS011;12521;43.310;21.876;2023-12-29T13:21:28;27.0;;;23.0;;
22675;SDS011;12521;43.310;21.876;2023-12-29T13:26:05;28.0;;;22.0;;
22675;SDS011;12521;43.310;21.876;2023-12-29T13:30:47;28.0;;;22.0;;
22675;SDS011;12521;43.310;21.876;2023-12-29T13:35:29;29.0;;;21.0;;
22675;SDS011;12521;43.310;21.876;2023-12-29T13:40:34;29.0;;;21.0;;
22675;SDS011;12521;43.310;21.876;2023-12-29T13:45:42;30.0;;;22.0;;
22675;SDS011;12521;43.310;21.876;2023-12-29T13:50:19;30.0;;;22.0;;
22675;SDS011;12521;43.310;21.876;2023-12-29T13:54:58;30.0;;;24.0;;
22675;SDS011;12521;43.310;21.876;2023-12-29T13:59:34;30.0;;;24.0;;
22675;SDS011;12521;43.310;21.876;2023-12-29T14:04:12;42.0;;;32.0;;
22675;SDS011;12521;43.310;21.876;2023-12-29T14:08:54;42.0;;;32.0;;
22675;SDS011;12521;43.310;21.876;2023-12-29T14:13:31;54.0;;;41.0;;
22675;SDS011;12521;43.310;21.876;2023-12-29T14:18:09;54.0;;;41.0;;
22675;SDS011;12521;43.310;21.876;2023-12-29T14:23:31;61.0;;;47.0;;
22675;SDS011;12521;43.310;21.876;2023-12-29T14:28:13;61.0;;;47.0;;
22675;SDS011;12521;43.310;21.876;2023-12-29T14:32:55;61.0;;;47.0;;
22675;SDS011;12521;43.310;21.876;2023-12-29T14:37:31;68.0;;;53.0;;
22675;SDS011;12521;43.310;21.876;2023-12-29T14:42:07;68.0;;;53.0;;
22675;SDS011;12521;43.310;21.876;2023-12-29T14:46:43;58.0;;;48.0;;
22675;SDS011;12521;43.310;21.876;2023-12-29T14:51:20;58.0;;;48.0;;
22675;SDS011;12521;43.310;21.876;2023-12-29T14:55:57;48.0;;;43.0;;
22675;SDS011;12521;43.310;21.876;2023-12-29T15:00:33;48.0;;;43.0;;
22675;SDS011;12521;43.310;21.876;2023-12-29T15:05:09;60.0;;;50.0;;
22675;SDS011;12521;43.310;21.876;2023-12-29T15:09:46;60.0;;;50.0;;
22675;SDS011;12521;43.310;21.876;2023-12-29T15:14:22;71.0;;;58.0;;
22675;SDS011;12521;43.310;21.876;2023-12-29T15:18:59;71.0;;;58.0;;
22675;SDS011;12521;43.310;21.876;2023-12-29T15:23:35;86.0;;;68.0;;
22675;SDS011;12521;43.310;21.876;2023-12-29T15:28:12;86.0;;;68.0;;
22675;SDS011;12521;43.310;21.876;2023-12-29T15:32:51;86.0;;;68.0;;
22675;SDS011;12521;43.310;21.876;2023-12-29T15:37:28;100.0;;;78.0;;
22675;SDS011;12521;43.310;21.876;2023-12-29T15:42:04;100.0;;;78.0;;
22675;SDS011;12521;43.310;21.876;2023-12-29T15:46:41;100.0;;;80.0;;
22675;SDS011;12521;43.310;21.876;2023-12-29T15:51:17;100.0;;;80.0;;
22675;SDS011;12521;43.310;21.876;2023-12-29T15:55:53;100.0;;;81.0;;
22675;SDS011;12521;43.310;21.876;2023-12-29T16:00:29;100.0;;;81.0;;
22675;SDS011;12521;43.310;21.876;2023-12-29T16:05:06;114.0;;;94.0;;
22675;SDS011;12521;43.310;21.876;2023-12-29T16:09:43;114.0;;;94.0;;
22675;SDS011;12521;43.310;21.876;2023-12-29T16:14:19;128.0;;;106.0;;
22675;SDS011;12521;43.310;21.876;2023-12-29T16:18:55;128.0;;;106.0;;
22675;SDS011;12521;43.310;21.876;2023-12-29T16:23:36;110.0;;;97.0;;
22675;SDS011;12521;43.310;21.876;2023-12-29T16:28:12;110.0;;;97.0;;
22675;SDS011;12521;43.310;21.876;2023-12-29T16:32:48;110.0;;;97.0;;
22675;SDS011;12521;43.310;21.876;2023-12-29T16:37:25;93.0;;;88.0;;
22675;SDS011;12521;43.310;21.876;2023-12-29T16:42:01;93.0;;;88.0;;
22675;SDS011;12521;43.310;21.876;2023-12-29T16:46:40;96.0;;;86.0;;
22675;SDS011;12521;43.310;21.876;2023-12-29T16:51:16;96.0;;;86.0;;
22675;SDS011;12521;43.310;21.876;2023-12-29T16:55:52;100.0;;;83.0;;
22675;SDS011;12521;43.310;21.876;2023-12-29T17:00:29;100.0;;;83.0;;
22675;SDS011;12521;43.310;21.876;2023-12-29T17:05:05;117.0;;;96.0;;
22675;SDS011;12521;43.310;21.876;2023-12-29T17:09:43;117.0;;;96.0;;
22675;SDS011;12521;43.310;21.876;2023-12-29T17:14:19;134.0;;;110.0;;
22675;SDS011;12521;43.310;21.876;2023-12-29T17:18:55;134.0;;;110.0;;
22675;SDS011;12521;43.310;21.876;2023-12-29T17:23:31;130.0;;;110.0;;
22675;SDS011;12521;43.310;21.876;2023-12-29T17:28:07;130.0;;;110.0;;
22675;SDS011;12521;43.310;21.876;2023-12-29T17:32:43;130.0;;;110.0;;
22675;SDS011;12521;43.310;21.876;2023-12-29T17:37:19;126.0;;;111.0;;
22675;SDS011;12521;43.310;21.876;2023-12-29T17:41:56;126.0;;;111.0;;
22675;SDS011;12521;43.310;21.876;2023-12-29T17:46:32;106.0;;;92.0;;
22675;SDS011;12521;43.310;21.876;2023-12-29T17:51:08;106.0;;;92.0;;
22675;SDS011;12521;43.310;21.876;2023-12-29T17:55:45;87.0;;;72.0;;
22675;SDS011;12521;43.310;21.876;2023-12-29T18:00:22;87.0;;;72.0;;
22675;SDS011;12521;43.310;21.876;2023-12-29T18:04:58;102.0;;;86.0;;
22675;SDS011;12521;43.310;21.876;2023-12-29T18:09:37;102.0;;;86.0;;
22675;SDS011;12521;43.310;21.876;2023-12-29T18:14:14;118.0;;;101.0;;
22675;SDS011;12521;43.310;21.876;2023-12-29T18:18:50;118.0;;;101.0;;
22675;SDS011;12521;43.310;21.876;2023-12-29T18:23:27;130.0;;;114.0;;
22675;SDS011;12521;43.310;21.876;2023-12-29T18:28:05;130.0;;;114.0;;
22675;SDS011;12521;43.310;21.876;2023-12-29T18:32:41;130.0;;;114.0;;
22675;SDS011;12521;43.310;21.876;2023-12-29T18:37:17;141.0;;;127.0;;
22675;SDS011;12521;43.310;21.876;2023-12-29T18:41:54;141.0;;;127.0;;
22675;SDS011;12521;43.310;21.876;2023-12-29T18:46:30;148.0;;;130.0;;
22675;SDS011;12521;43.310;21.876;2023-12-29T18:51:06;148.0;;;130.0;;
22675;SDS011;12521;43.310;21.876;2023-12-29T18:55:43;154.0;;;132.0;;
22675;SDS011;12521;43.310;21.876;2023-12-29T19:00:19;154.0;;;132.0;;
22675;SDS011;12521;43.310;21.876;2023-12-29T19:04:55;151.0;;;126.0;;
22675;SDS011;12521;43.310;21.876;2023-12-29T19:09:32;151.0;;;126.0;;
22675;SDS011;12521;43.310;21.876;2023-12-29T19:14:08;148.0;;;121.0;;
22675;SDS011;12521;43.310;21.876;2023-12-29T19:18:44;148.0;;;121.0;;
22675;SDS011;12521;43.310;21.876;2023-12-29T19:23:21;148.0;;;121.0;;
22675;SDS011;12521;43.310;21.876;2023-12-29T19:27:57;130.0;;;110.0;;
22675;SDS011;12521;43.310;21.876;2023-12-29T19:32:33;130.0;;;110.0;;
22675;SDS011;12521;43.310;21.876;2023-12-29T19:37:10;113.0;;;99.0;;
22675;SDS011;12521;43.310;21.876;2023-12-29T19:41:46;113.0;;;99.0;;
22675;SDS011;12521;43.310;21.876;2023-12-29T19:46:22;120.0;;;101.0;;
22675;SDS011;12521;43.310;21.876;2023-12-29T19:50:58;120.0;;;101.0;;
22675;SDS011;12521;43.310;21.876;2023-12-29T19:55:35;126.0;;;103.0;;
22675;SDS011;12521;43.310;21.876;2023-12-29T20:00:13;126.0;;;103.0;;
22675;SDS011;12521;43.310;21.876;2023-12-29T20:04:50;111.0;;;92.0;;
22675;SDS011;12521;43.310;21.876;2023-12-29T20:09:26;111.0;;;92.0;;
22675;SDS011;12521;43.310;21.876;2023-12-29T20:14:02;96.0;;;81.0;;
22675;SDS011;12521;43.310;21.876;2023-12-29T20:18:38;96.0;;;81.0;;
22675;SDS011;12521;43.310;21.876;2023-12-29T20:23:15;96.0;;;81.0;;
22675;SDS011;12521;43.310;21.876;2023-12-29T20:27:51;106.0;;;88.0;;
22675;SDS011;12521;43.310;21.876;2023-12-29T20:32:28;106.0;;;88.0;;
22675;SDS011;12521;43.310;21.876;2023-12-29T20:37:04;116.0;;;95.0;;
22675;SDS011;12521;43.310;21.876;2023-12-29T20:41:40;116.0;;;95.0;;
22675;SDS011;12521;43.310;21.876;2023-12-29T20:46:16;101.0;;;86.0;;
22675;SDS011;12521;43.310;21.876;2023-12-29T20:50:54;101.0;;;86.0;;
22675;SDS011;12521;43.310;21.876;2023-12-29T20:55:31;86.0;;;78.0;;
22675;SDS011;12521;43.310;21.876;2023-12-29T21:00:07;86.0;;;78.0;;
22675;SDS011;12521;43.310;21.876;2023-12-29T21:04:47;83.0;;;74.0;;
22675;SDS011;12521;43.310;21.876;2023-12-29T21:09:23;83.0;;;74.0;;
22675;SDS011;12521;43.310;21.876;2023-12-29T21:14:00;80.0;;;69.0;;
22675;SDS011;12521;43.310;21.876;2023-12-29T21:18:36;80.0;;;69.0;;
22675;SDS011;12521;43.310;21.876;2023-12-29T21:23:12;80.0;;;69.0;;
22675;SDS011;12521;43.310;21.876;2023-12-29T21:27:48;74.0;;;64.0;;
22675;SDS011;12521;43.310;21.876;2023-12-29T21:32:24;74.0;;;64.0;;
22675;SDS011;12521;43.310;21.876;2023-12-29T21:37:00;67.0;;;59.0;;
22675;SDS011;12521;43.310;21.876;2023-12-29T21:41:37;67.0;;;59.0;;
22675;SDS011;12521;43.310;21.876;2023-12-29T21:46:13;75.0;;;62.0;;
22675;SDS011;12521;43.310;21.876;2023-12-29T21:50:51;75.0;;;62.0;;
22675;SDS011;12521;43.310;21.876;2023-12-29T21:55:27;83.0;;;66.0;;
22675;SDS011;12521;43.310;21.876;2023-12-29T22:00:04;83.0;;;66.0;;
22675;SDS011;12521;43.310;21.876;2023-12-29T22:04:46;98.0;;;78.0;;
22675;SDS011;12521;43.310;21.876;2023-12-29T22:09:22;98.0;;;78.0;;
22675;SDS011;12521;43.310;21.876;2023-12-29T22:13:58;113.0;;;90.0;;
22675;SDS011;12521;43.310;21.876;2023-12-29T22:18:35;113.0;;;90.0;;
22675;SDS011;12521;43.310;21.876;2023-12-29T22:23:12;113.0;;;90.0;;
22675;SDS011;12521;43.310;21.876;2023-12-29T22:27:48;124.0;;;97.0;;
22675;SDS011;12521;43.310;21.876;2023-12-29T22:32:24;124.0;;;97.0;;
22675;SDS011;12521;43.310;21.876;2023-12-29T22:37:01;134.0;;;104.0;;
22675;SDS011;12521;43.310;21.876;2023-12-29T22:41:38;134.0;;;104.0;;
22675;SDS011;12521;43.310;21.876;2023-12-29T22:46:14;104.0;;;83.0;;
22675;SDS011;12521;43.310;21.876;2023-12-29T22:50:54;104.0;;;83.0;;
22675;SDS011;12521;43.310;21.876;2023-12-29T22:55:30;74.0;;;62.0;;
22675;SDS011;12521;43.310;21.876;2023-12-29T23:00:06;74.0;;;62.0;;
22675;SDS011;12521;43.310;21.876;2023-12-29T23:04:49;72.0;;;63.0;;
22675;SDS011;12521;43.310;21.876;2023-12-29T23:09:26;72.0;;;63.0;;
22675;SDS011;12521;43.310;21.876;2023-12-29T23:14:02;69.0;;;64.0;;
22675;SDS011;12521;43.310;21.876;2023-12-29T23:18:39;69.0;;;64.0;;
22675;SDS011;12521;43.310;21.876;2023-12-29T23:23:15;69.0;;;64.0;;
22675;SDS011;12521;43.310;21.876;2023-12-29T23:27:51;76.0;;;68.0;;
22675;SDS011;12521;43.310;21.876;2023-12-29T23:32:28;76.0;;;68.0;;
22675;SDS011;12521;43.310;21.876;2023-12-29T23:37:04;83.0;;;71.0;;
22675;SDS011;12521;43.310;21.876;2023-12-29T23:41:41;83.0;;;71.0;;
22675;SDS011;12521;43.310;21.876;2023-12-29T23:46:17;80.0;;;69.0;;
22675;SDS011;12521;43.310;21.876;2023-12-29T23:50:54;80.0;;;69.0;;
22675;SDS011;12521;43.310;21.876;2023-12-29T23:55:30;78.0;;;67.0;;
